createdAt,value
2022-12-16T00:02:05.661Z,15.77
2022-12-16T00:05:10.662Z,17.08
2022-12-16T00:08:15.665Z,15.07
2022-12-16T00:11:21.023Z,16.60
2022-12-16T00:14:27.483Z,14.18
2022-12-16T00:17:32.197Z,16.13
2022-12-16T00:20:36.766Z,16.63
2022-12-16T00:23:41.907Z,15.45
2022-12-16T00:26:46.696Z,16.23
2022-12-16T00:29:51.472Z,16.92
2022-12-16T00:32:56.247Z,18.15
2022-12-16T00:36:00.880Z,16.45
2022-12-16T00:39:05.704Z,16.52
2022-12-16T00:42:10.334Z,16.77
2022-12-16T00:45:15.125Z,16.52
2022-12-16T00:48:23.222Z,16.42
2022-12-16T00:51:28.150Z,17.20
2022-12-16T00:54:32.945Z,15.50
2022-12-16T00:57:37.293Z,16.73
2022-12-16T01:00:41.813Z,16.65
2022-12-16T01:03:46.693Z,15.90
2022-12-16T01:06:51.748Z,16.50
2022-12-16T01:09:56.961Z,16.88
2022-12-16T01:13:01.948Z,15.40
2022-12-16T01:16:06.847Z,16.27
2022-12-16T01:19:11.473Z,15.40
2022-12-16T01:22:16.393Z,15.35
2022-12-16T01:25:21.186Z,16.80
2022-12-16T01:28:27.100Z,15.48
2022-12-16T01:31:31.980Z,17.08
2022-12-16T01:34:36.373Z,15.88
2022-12-16T01:37:40.794Z,16.08
2022-12-16T01:40:45.070Z,16.30
2022-12-16T01:43:49.789Z,16.55
2022-12-16T01:47:03.188Z,16.17
2022-12-16T01:50:14.373Z,17.20
2022-12-16T01:53:19.400Z,16.55
2022-12-16T01:56:27.591Z,16.65
2022-12-16T01:59:34.117Z,15.52
2022-12-16T02:02:39.010Z,15.55
2022-12-16T02:05:45.905Z,16.38
2022-12-16T02:08:57.584Z,17.13
2022-12-16T02:12:45.256Z,17.25
2022-12-16T02:16:05.828Z,16.65
2022-12-16T02:19:27.372Z,16.25
2022-12-16T02:23:05.142Z,15.70
2022-12-16T02:26:53.567Z,14.75
2022-12-16T02:30:51.972Z,16.00
2022-12-16T02:34:10.473Z,14.27
2022-12-16T02:37:30.412Z,16.65
2022-12-16T02:40:45.155Z,17.00
2022-12-16T02:44:03.996Z,16.30
2022-12-16T02:47:08.606Z,16.13
2022-12-16T02:50:34.658Z,15.68
2022-12-16T02:53:42.112Z,15.75
2022-12-16T02:57:15.471Z,17.20
2022-12-16T03:00:23.501Z,16.67
2022-12-16T03:03:49.944Z,16.60
2022-12-16T03:06:56.638Z,15.50
2022-12-16T03:10:06.317Z,16.33
2022-12-16T03:13:13.029Z,16.23
2022-12-16T03:16:22.913Z,15.80
2022-12-16T03:19:28.162Z,15.93
2022-12-16T03:22:37.952Z,16.33
2022-12-16T03:25:45.544Z,16.63
2022-12-16T03:29:05.867Z,16.83
2022-12-16T03:32:18.437Z,14.77
2022-12-16T03:35:39.441Z,17.13
2022-12-16T03:38:46.654Z,15.02
2022-12-16T03:41:54.392Z,16.48
2022-12-16T03:44:59.092Z,15.82
2022-12-16T03:48:06.363Z,16.52
2022-12-16T03:51:11.203Z,16.63
2022-12-16T03:54:15.775Z,18.27
2022-12-16T03:57:20.609Z,18.45
2022-12-16T04:00:26.184Z,18.75
2022-12-16T04:03:31.083Z,16.55
2022-12-16T04:06:36.095Z,17.20
2022-12-16T04:09:40.785Z,17.75
2022-12-16T04:13:03.857Z,19.73
2022-12-16T04:16:35.880Z,20.75
2022-12-16T04:19:59.156Z,19.15
2022-12-16T04:23:23.674Z,20.33
2022-12-16T04:26:28.227Z,19.42
2022-12-16T04:29:33.664Z,19.13
2022-12-16T04:32:57.569Z,20.33
2022-12-16T04:36:20.740Z,18.08
2022-12-16T04:40:03.455Z,18.48
2022-12-16T04:43:26.837Z,18.35
2022-12-16T04:46:50.680Z,19.27
2022-12-16T04:50:13.628Z,19.70
2022-12-16T04:53:36.320Z,19.38
2022-12-16T04:56:58.993Z,19.45
2022-12-16T05:00:23.721Z,19.45
2022-12-16T05:03:46.898Z,19.17
2022-12-16T05:07:09.661Z,19.27
2022-12-16T05:10:32.316Z,20.90
2022-12-16T05:13:55.069Z,18.15
2022-12-16T05:17:18.083Z,19.88
2022-12-16T05:20:40.896Z,18.23
2022-12-16T05:24:04.128Z,16.38
2022-12-16T05:27:27.086Z,15.97
2022-12-16T05:30:49.872Z,18.67
2022-12-16T05:34:13.256Z,19.02
2022-12-16T05:37:35.962Z,18.10
2022-12-16T05:40:58.868Z,15.80
2022-12-16T05:44:27.093Z,17.33
2022-12-16T05:47:54.437Z,17.63
2022-12-16T05:51:36.971Z,16.88
2022-12-16T05:54:59.767Z,16.40
2022-12-16T05:58:22.894Z,15.98
2022-12-16T06:01:45.961Z,17.02
2022-12-16T06:05:08.826Z,15.85
2022-12-16T06:08:31.435Z,16.50
2022-12-16T06:11:54.424Z,16.45
2022-12-16T06:15:17.090Z,16.38
2022-12-16T06:18:39.515Z,15.60
2022-12-16T06:22:02.377Z,17.77
2022-12-16T06:25:25.797Z,17.35
2022-12-16T06:28:48.734Z,17.25
2022-12-16T06:32:11.720Z,17.35
2022-12-16T06:35:34.843Z,16.25
2022-12-16T06:38:57.848Z,16.88
2022-12-16T06:42:20.528Z,17.10
2022-12-16T06:45:44.136Z,17.15
2022-12-16T06:49:23.979Z,16.45
2022-12-16T06:52:47.230Z,17.55
2022-12-16T06:56:10.534Z,16.02
2022-12-16T06:59:33.307Z,16.30
2022-12-16T07:02:56.078Z,15.77
2022-12-16T07:06:19.253Z,14.98
2022-12-16T07:09:42.147Z,14.25
2022-12-16T07:13:05.078Z,15.30
2022-12-16T07:16:27.975Z,15.48
2022-12-16T07:19:50.795Z,14.18
2022-12-16T07:23:19.504Z,13.82
2022-12-16T07:26:56.402Z,14.70
2022-12-16T07:30:20.969Z,15.13
2022-12-16T07:33:43.960Z,16.10
2022-12-16T07:37:07.273Z,16.60
2022-12-16T07:40:32.597Z,14.70
2022-12-16T07:43:55.019Z,16.02
2022-12-16T07:47:19.605Z,16.90
2022-12-16T07:50:42.496Z,17.83
2022-12-16T07:54:05.286Z,15.82
2022-12-16T07:57:28.106Z,16.70
2022-12-16T08:00:50.650Z,17.15
2022-12-16T08:04:13.926Z,16.35
2022-12-16T08:07:36.829Z,12.73
2022-12-16T08:11:00.077Z,12.32
2022-12-16T08:14:22.923Z,12.43
2022-12-16T08:17:45.802Z,10.75
2022-12-16T08:21:09.576Z,10.02
2022-12-16T08:24:32.380Z,10.65
2022-12-16T08:27:56.226Z,10.30
2022-12-16T08:31:19.798Z,11.27
2022-12-16T08:34:42.895Z,10.47
2022-12-16T08:38:12.256Z,10.90
2022-12-16T08:41:37.190Z,9.77
2022-12-16T08:45:00.366Z,9.32
2022-12-16T08:48:24.062Z,9.60
2022-12-16T08:51:47.158Z,9.43
2022-12-16T08:55:10.462Z,8.90
2022-12-16T08:58:33.671Z,9.27
2022-12-16T09:01:56.794Z,8.60
2022-12-16T09:05:21.339Z,8.95
2022-12-16T09:08:43.950Z,7.65
2022-12-16T09:12:06.736Z,7.82
2022-12-16T09:15:29.804Z,8.57
2022-12-16T09:18:53.285Z,7.95
2022-12-16T09:25:41.135Z,7.18
2022-12-16T09:29:04.298Z,7.03
2022-12-16T09:32:27.401Z,7.65
2022-12-16T09:35:51.127Z,7.70
2022-12-16T09:39:14.296Z,7.22
2022-12-16T09:42:55.622Z,7.22
2022-12-16T09:46:53.620Z,7.25
2022-12-16T09:50:16.947Z,7.22
2022-12-16T09:53:41.891Z,7.80
2022-12-16T09:57:06.199Z,7.35
2022-12-16T10:00:41.497Z,7.18
2022-12-16T10:04:05.592Z,7.22
2022-12-16T10:11:27.623Z,7.88
2022-12-16T10:14:59.220Z,8.30
2022-12-16T10:18:36.523Z,9.52
2022-12-16T10:22:31.320Z,9.77
2022-12-16T10:26:04.104Z,9.73
2022-12-16T10:29:41.538Z,9.82
2022-12-16T10:33:10.449Z,8.93
2022-12-16T10:36:40.663Z,9.48
2022-12-16T10:40:14.186Z,8.80
2022-12-16T10:43:52.345Z,8.70
2022-12-16T10:47:18.229Z,8.40
2022-12-16T10:50:41.225Z,9.95
2022-12-16T10:54:09.933Z,9.70
2022-12-16T10:58:14.549Z,9.90
2022-12-16T11:01:46.576Z,9.00
2022-12-16T11:05:09.736Z,8.35
2022-12-16T11:08:49.062Z,8.85
2022-12-16T11:12:11.821Z,8.48
2022-12-16T11:15:52.478Z,8.65
2022-12-16T11:19:19.356Z,8.65
2022-12-16T11:22:42.911Z,8.68
2022-12-16T11:26:13.639Z,8.55
2022-12-16T11:29:40.597Z,9.50
2022-12-16T11:33:12.480Z,10.18
2022-12-16T11:36:40.374Z,8.93
2022-12-16T11:40:03.584Z,9.57
2022-12-16T11:43:30.572Z,9.93
2022-12-16T11:46:54.145Z,11.45
2022-12-16T11:50:18.922Z,11.07
2022-12-16T11:54:12.647Z,14.57
2022-12-16T11:57:47.548Z,14.32
2022-12-16T12:01:38.753Z,12.73
2022-12-16T12:05:09.204Z,12.93
2022-12-16T12:09:12.521Z,13.40
2022-12-16T12:13:11.570Z,15.82
2022-12-16T12:17:01.792Z,15.43
2022-12-16T12:20:45.376Z,14.40
2022-12-16T12:24:43.317Z,13.15
2022-12-16T12:28:22.075Z,13.10
2022-12-16T12:32:08.252Z,15.10
2022-12-16T12:36:09.070Z,11.98
2022-12-16T12:39:57.635Z,13.32
2022-12-16T12:43:32.026Z,13.00
2022-12-16T12:47:04.479Z,13.60
2022-12-16T12:51:00.385Z,13.90
2022-12-16T12:54:54.531Z,14.10
2022-12-16T12:58:18.844Z,12.55
2022-12-16T13:01:48.081Z,12.07
2022-12-16T13:05:11.624Z,12.05
2022-12-16T13:09:16.322Z,13.57
2022-12-16T13:12:47.844Z,11.20
2022-12-16T13:16:10.730Z,11.57
2022-12-16T13:19:48.757Z,12.02
2022-12-16T13:23:11.442Z,12.18
2022-12-16T13:26:38.262Z,11.27
2022-12-16T13:30:41.465Z,11.43
2022-12-16T13:34:10.706Z,11.48
2022-12-16T13:37:45.758Z,10.68
2022-12-16T13:41:23.361Z,10.80
2022-12-16T13:45:01.432Z,11.25
2022-12-16T13:48:48.268Z,10.73
2022-12-16T13:52:17.927Z,11.30
2022-12-16T13:55:59.276Z,11.15
2022-12-16T13:59:37.748Z,11.65
2022-12-16T14:03:02.163Z,9.88
2022-12-16T14:06:36.874Z,11.38
2022-12-16T14:10:03.073Z,11.43
2022-12-16T14:13:56.093Z,11.93
2022-12-16T14:17:23.842Z,12.05
2022-12-16T14:20:55.441Z,11.82
2022-12-16T14:24:39.286Z,10.75
2022-12-16T14:28:03.275Z,12.27
2022-12-16T14:31:46.368Z,12.15
2022-12-16T14:35:20.802Z,11.25
2022-12-16T14:38:49.453Z,12.25
2022-12-16T14:42:12.875Z,12.38
2022-12-16T14:45:44.838Z,12.02
2022-12-16T14:49:09.346Z,12.98
2022-12-16T14:52:45.486Z,12.57
2022-12-16T14:56:08.509Z,12.02
2022-12-16T14:59:37.650Z,14.65
2022-12-16T15:03:03.778Z,17.55
2022-12-16T15:06:36.399Z,16.58
2022-12-16T15:10:05.394Z,20.00
2022-12-16T15:13:37.468Z,19.42
2022-12-16T15:17:01.504Z,17.60
2022-12-16T15:20:35.509Z,18.20
2022-12-16T15:24:01.896Z,17.37
2022-12-16T15:27:40.082Z,18.63
2022-12-16T15:31:05.548Z,18.20
2022-12-16T15:34:49.293Z,18.92
2022-12-16T15:38:12.272Z,17.77
2022-12-16T15:41:53.914Z,18.58
2022-12-16T15:45:16.701Z,17.02
2022-12-16T15:48:48.028Z,15.98
2022-12-16T15:52:11.197Z,18.02
2022-12-16T15:56:04.157Z,16.58
2022-12-16T15:59:49.992Z,19.15
2022-12-16T16:03:13.157Z,20.48
2022-12-16T16:06:41.632Z,21.08
2022-12-16T16:10:04.428Z,18.73
2022-12-16T16:13:28.983Z,19.25
2022-12-16T16:16:51.652Z,19.85
2022-12-16T16:20:14.164Z,21.77
2022-12-16T16:23:37.368Z,19.67
2022-12-16T16:27:01.031Z,19.20
2022-12-16T16:30:24.766Z,20.10
2022-12-16T16:33:47.481Z,19.40
2022-12-16T16:37:16.496Z,19.15
2022-12-16T16:41:01.094Z,18.63
2022-12-16T16:44:23.969Z,18.83
2022-12-16T16:47:46.929Z,19.83
2022-12-16T16:51:13.760Z,18.90
2022-12-16T16:54:36.581Z,19.85
2022-12-16T16:57:59.636Z,18.23
2022-12-16T17:01:23.140Z,20.20
2022-12-16T17:04:46.638Z,20.95
2022-12-16T17:08:09.337Z,19.60
2022-12-16T17:11:37.859Z,19.08
2022-12-16T17:15:00.530Z,20.15
2022-12-16T17:18:24.223Z,18.80
2022-12-16T17:21:47.066Z,18.55
2022-12-16T17:25:10.119Z,20.15
2022-12-16T17:28:33.083Z,18.70
2022-12-16T17:31:57.046Z,21.02
2022-12-16T17:35:20.158Z,19.83
2022-12-16T17:38:43.325Z,18.15
2022-12-16T17:42:06.753Z,20.27
2022-12-16T17:45:29.598Z,18.52
2022-12-16T17:48:52.314Z,19.58
2022-12-16T17:52:14.960Z,18.13
2022-12-16T17:55:38.005Z,19.88
2022-12-16T17:59:01.327Z,20.30
2022-12-16T18:02:24.451Z,19.52
2022-12-16T18:05:47.672Z,21.03
2022-12-16T18:09:10.914Z,18.92
2022-12-16T18:12:34.339Z,18.57
2022-12-16T18:15:57.676Z,18.55
2022-12-16T18:19:20.755Z,19.23
2022-12-16T18:22:43.948Z,17.77
2022-12-16T18:26:29.188Z,20.20
2022-12-16T18:29:51.944Z,18.92
2022-12-16T18:33:15.112Z,18.88
2022-12-16T18:36:37.952Z,20.25
2022-12-16T18:40:00.783Z,19.98
2022-12-16T18:43:23.641Z,18.42
2022-12-16T18:46:46.598Z,18.67
2022-12-16T18:50:09.567Z,18.45
2022-12-16T18:53:32.755Z,17.95
2022-12-16T18:56:56.090Z,19.45
2022-12-16T19:00:19.103Z,18.05
2022-12-16T19:03:42.663Z,18.40
2022-12-16T19:07:05.759Z,18.17
2022-12-16T19:10:29.554Z,18.05
2022-12-16T19:13:53.001Z,18.60
2022-12-16T19:17:16.534Z,19.48
2022-12-16T19:20:39.451Z,19.23
2022-12-16T19:24:02.737Z,19.73
2022-12-16T19:27:25.775Z,17.27
2022-12-16T19:30:49.506Z,19.45
2022-12-16T19:34:14.234Z,17.48
2022-12-16T19:37:37.324Z,16.63
2022-12-16T19:41:12.936Z,17.50
2022-12-16T19:44:35.830Z,17.42
2022-12-16T19:47:59.805Z,17.55
2022-12-16T19:51:26.088Z,18.50
2022-12-16T19:54:48.645Z,20.95
2022-12-16T19:58:11.787Z,19.80
2022-12-16T20:01:34.683Z,19.95
2022-12-16T20:04:58.148Z,19.80
2022-12-16T20:08:22.008Z,17.55
2022-12-16T20:11:44.780Z,16.38
2022-12-16T20:15:07.507Z,16.73
2022-12-16T20:18:30.431Z,16.80
2022-12-16T20:21:56.297Z,19.08
2022-12-16T20:25:19.580Z,18.63
2022-12-16T20:28:42.532Z,21.63
2022-12-16T20:32:05.340Z,19.08
2022-12-16T20:35:28.239Z,19.17
2022-12-16T20:38:52.939Z,19.80
2022-12-16T20:42:16.371Z,18.10
2022-12-16T20:45:39.819Z,18.02
2022-12-16T20:49:05.133Z,17.30
2022-12-16T20:52:48.481Z,15.85
2022-12-16T20:56:11.804Z,17.15
2022-12-16T20:59:35.160Z,17.88
2022-12-16T21:02:58.128Z,14.68
2022-12-16T21:06:23.677Z,16.58
2022-12-16T21:09:57.035Z,13.63
2022-12-16T21:13:33.397Z,17.45
2022-12-16T21:16:56.317Z,16.15
2022-12-16T21:20:19.454Z,16.67
2022-12-16T21:23:42.818Z,18.38
2022-12-16T21:27:06.378Z,17.67
2022-12-16T21:30:30.302Z,12.98
2022-12-16T21:33:53.920Z,16.58
2022-12-16T21:37:18.746Z,18.05
2022-12-16T21:40:42.265Z,19.60
2022-12-16T21:44:05.400Z,17.77
2022-12-16T21:47:28.891Z,25.27
2022-12-16T21:50:52.338Z,48.10
2022-12-16T21:57:39.978Z,25.27
2022-12-16T22:01:16.978Z,21.98
2022-12-16T22:04:40.363Z,21.25
2022-12-16T22:08:04.299Z,20.10
2022-12-16T22:11:32.472Z,20.05
2022-12-16T22:18:38.311Z,17.80
2022-12-16T22:22:01.100Z,18.27
2022-12-16T22:25:24.383Z,17.02
2022-12-16T22:28:47.214Z,20.42
2022-12-16T22:32:10.090Z,18.75
2022-12-16T22:35:33.503Z,17.65
2022-12-16T22:38:56.987Z,17.20
2022-12-16T22:42:20.132Z,17.33
2022-12-16T22:45:43.484Z,15.60
2022-12-16T22:49:06.930Z,17.35
2022-12-16T22:52:29.669Z,17.13
2022-12-16T22:55:56.167Z,15.35
2022-12-16T22:59:23.150Z,15.95
2022-12-16T23:02:46.131Z,16.30
2022-12-16T23:06:09.560Z,17.65
2022-12-16T23:09:32.765Z,15.50
2022-12-16T23:12:56.425Z,15.73
2022-12-16T23:16:19.820Z,15.98
2022-12-16T23:19:42.704Z,14.68
2022-12-16T23:23:05.604Z,15.73
2022-12-16T23:26:29.085Z,15.35
2022-12-16T23:29:51.798Z,16.92
2022-12-16T23:32:30.619Z,18.65
2022-12-16T23:33:30.804Z,16.77
2022-12-16T23:36:55.110Z,17.58
2022-12-16T23:40:19.984Z,15.98
2022-12-16T23:43:43.150Z,16.90
2022-12-16T23:47:06.503Z,17.95
2022-12-16T23:50:30.319Z,16.08
2022-12-16T23:53:53.101Z,15.85
2022-12-16T23:57:39.219Z,16.25
